createdAt,value
2019-05-26T00:00:35.347Z,8.10
2019-05-26T00:01:35.342Z,7.20
2019-05-26T00:02:35.344Z,8.00
2019-05-26T00:03:35.318Z,7.20
2019-05-26T00:04:35.303Z,8.20
2019-05-26T00:05:35.303Z,7.30
2019-05-26T00:06:35.291Z,8.10
2019-05-26T00:07:35.321Z,7.80
2019-05-26T00:08:35.319Z,7.90
2019-05-26T00:09:35.290Z,7.60
2019-05-26T00:10:35.244Z,7.90
2019-05-26T00:11:35.278Z,7.80
2019-05-26T00:12:35.221Z,7.70
2019-05-26T00:13:35.205Z,7.00
2019-05-26T00:14:35.199Z,7.90
2019-05-26T00:15:35.200Z,7.00
2019-05-26T00:16:35.253Z,7.90
2019-05-26T00:17:35.162Z,8.00
2019-05-26T00:18:35.155Z,8.30
2019-05-26T00:19:35.164Z,7.90
2019-05-26T00:20:35.135Z,7.90
2019-05-26T00:21:35.122Z,7.50
2019-05-26T00:22:35.139Z,7.30
2019-05-26T00:23:35.106Z,7.00
2019-05-26T00:24:35.092Z,7.50
2019-05-26T00:25:35.174Z,7.40
2019-05-26T00:26:35.069Z,8.10
2019-05-26T00:27:35.056Z,7.70
2019-05-26T00:28:35.122Z,8.00
2019-05-26T00:29:42.017Z,7.20
2019-05-26T00:30:35.020Z,7.40
2019-05-26T00:31:35.018Z,7.50
2019-05-26T00:32:35.004Z,8.00
2019-05-26T00:33:34.993Z,8.20
2019-05-26T00:34:34.989Z,7.40
2019-05-26T00:35:34.972Z,7.60
2019-05-26T00:36:34.983Z,7.70
2019-05-26T00:37:48.340Z,7.60
2019-05-26T00:38:35.947Z,7.30
2019-05-26T00:39:34.929Z,7.50
2019-05-26T00:40:34.917Z,7.60
2019-05-26T00:41:34.902Z,7.70
2019-05-26T00:42:34.914Z,7.50
2019-05-26T00:43:34.892Z,7.60
2019-05-26T00:44:34.873Z,7.50
2019-05-26T00:45:34.862Z,7.60
2019-05-26T00:46:34.847Z,7.70
2019-05-26T00:47:34.839Z,8.00
2019-05-26T00:48:34.833Z,7.70
2019-05-26T00:49:34.825Z,7.70
2019-05-26T00:50:34.810Z,7.40
2019-05-26T00:51:34.792Z,8.10
2019-05-26T00:52:34.790Z,8.00
2019-05-26T00:53:34.786Z,8.00
2019-05-26T00:54:34.761Z,7.40
2019-05-26T00:55:34.757Z,7.40
2019-05-26T00:56:34.748Z,7.30
2019-05-26T00:57:34.793Z,7.60
2019-05-26T00:58:34.766Z,7.70
2019-05-26T00:59:34.710Z,7.80
2019-05-26T01:00:34.772Z,7.60
2019-05-26T01:01:42.605Z,7.80
2019-05-26T01:02:34.669Z,7.60
2019-05-26T01:03:34.658Z,8.70
2019-05-26T01:04:34.679Z,7.40
2019-05-26T01:05:34.644Z,7.30
2019-05-26T01:06:34.674Z,7.70
2019-05-26T01:07:34.679Z,8.10
2019-05-26T01:08:34.608Z,7.20
2019-05-26T01:09:34.608Z,8.30
2019-05-26T01:10:34.624Z,7.50
2019-05-26T01:11:34.571Z,7.90
2019-05-26T01:12:34.569Z,8.20
2019-05-26T01:13:34.592Z,7.70
2019-05-26T01:14:34.544Z,7.00
2019-05-26T01:15:34.581Z,7.60
2019-05-26T01:16:34.533Z,7.30
2019-05-26T01:17:34.519Z,7.00
2019-05-26T01:18:34.509Z,7.20
2019-05-26T01:19:34.538Z,7.00
2019-05-26T01:20:34.540Z,7.20
2019-05-26T01:21:34.470Z,6.80
2019-05-26T01:22:34.467Z,7.00
2019-05-26T01:23:34.532Z,6.90
2019-05-26T01:24:34.455Z,7.10
2019-05-26T01:25:34.463Z,6.80
2019-05-26T01:26:34.419Z,7.00
2019-05-26T01:27:34.405Z,7.20
2019-05-26T01:28:34.396Z,7.10
2019-05-26T01:29:34.463Z,6.60
2019-05-26T01:30:34.370Z,9.20
2019-05-26T01:31:34.405Z,8.50
2019-05-26T01:32:34.355Z,8.50
2019-05-26T01:33:41.318Z,8.00
2019-05-26T01:34:34.329Z,8.40
2019-05-26T01:35:34.316Z,7.60
2019-05-26T01:36:34.309Z,8.40
2019-05-26T01:37:34.313Z,7.70
2019-05-26T01:38:34.288Z,8.20
2019-05-26T01:39:34.279Z,7.60
2019-05-26T01:40:34.271Z,8.60
2019-05-26T01:41:34.263Z,8.00
2019-05-26T01:42:34.281Z,9.00
2019-05-26T01:43:34.232Z,7.70
2019-05-26T01:44:34.216Z,8.40
2019-05-26T01:45:34.201Z,8.60
2019-05-26T01:46:34.197Z,8.40
2019-05-26T01:47:34.205Z,8.10
2019-05-26T01:48:34.198Z,8.50
2019-05-26T01:49:34.167Z,8.30
2019-05-26T01:50:34.160Z,8.10
2019-05-26T01:51:34.190Z,8.30
2019-05-26T01:52:34.131Z,7.80
2019-05-26T01:53:34.137Z,8.20
2019-05-26T01:54:34.181Z,8.80
2019-05-26T01:55:34.098Z,7.30
2019-05-26T01:56:34.089Z,8.30
2019-05-26T01:57:34.076Z,8.00
2019-05-26T01:58:34.065Z,7.70
2019-05-26T01:59:34.172Z,7.30
2019-05-26T02:00:34.044Z,11.20
2019-05-26T02:01:34.036Z,10.60
2019-05-26T02:02:34.022Z,11.30
2019-05-26T02:03:34.014Z,11.20
2019-05-26T02:04:33.997Z,10.80
2019-05-26T02:05:41.200Z,10.80
2019-05-26T02:06:33.984Z,9.90
2019-05-26T02:07:33.972Z,11.40
2019-05-26T02:08:39.335Z,10.20
2019-05-26T02:09:34.946Z,11.30
2019-05-26T02:10:33.943Z,10.90
2019-05-26T02:11:34.118Z,11.50
2019-05-26T02:12:33.925Z,10.70
2019-05-26T02:13:33.900Z,11.10
2019-05-26T02:14:33.892Z,11.60
2019-05-26T02:15:33.892Z,12.00
2019-05-26T02:16:33.929Z,11.40
2019-05-26T02:17:33.876Z,11.60
2019-05-26T02:18:33.848Z,10.40
2019-05-26T02:19:33.914Z,10.70
2019-05-26T02:20:33.827Z,11.10
2019-05-26T02:21:33.811Z,11.10
2019-05-26T02:22:33.842Z,10.70
2019-05-26T02:23:33.842Z,10.50
2019-05-26T02:24:33.788Z,9.90
2019-05-26T02:25:33.776Z,10.90
2019-05-26T02:26:33.806Z,10.20
2019-05-26T02:27:33.744Z,10.00
2019-05-26T02:28:33.746Z,9.80
2019-05-26T02:29:33.728Z,10.20
2019-05-26T02:30:33.787Z,10.70
2019-05-26T02:31:33.708Z,11.00
2019-05-26T02:32:33.706Z,11.50
2019-05-26T02:33:33.690Z,11.50
2019-05-26T02:34:33.682Z,10.80
2019-05-26T02:35:33.663Z,11.30
2019-05-26T02:36:33.721Z,10.80
2019-05-26T02:37:40.721Z,11.40
2019-05-26T02:38:33.634Z,11.00
2019-05-26T02:39:33.613Z,10.90
2019-05-26T02:40:33.608Z,11.20
2019-05-26T02:41:33.595Z,11.50
2019-05-26T02:42:33.600Z,11.70
2019-05-26T02:43:33.585Z,11.30
2019-05-26T02:44:33.560Z,12.10
2019-05-26T02:45:33.558Z,10.80
2019-05-26T02:46:33.540Z,11.10
2019-05-26T02:47:33.595Z,10.60
2019-05-26T02:48:33.544Z,11.90
2019-05-26T02:49:33.530Z,11.60
2019-05-26T02:50:33.553Z,11.30
2019-05-26T02:51:33.493Z,10.40
2019-05-26T02:52:33.482Z,11.20
2019-05-26T02:53:33.480Z,10.90
2019-05-26T02:54:33.483Z,11.40
2019-05-26T02:55:33.461Z,11.10
2019-05-26T02:56:33.457Z,11.40
2019-05-26T02:57:33.423Z,11.20
2019-05-26T02:58:33.414Z,12.80
2019-05-26T02:59:33.425Z,11.20
2019-05-26T03:00:33.401Z,11.50
2019-05-26T03:01:33.380Z,10.90
2019-05-26T03:02:33.405Z,11.30
2019-05-26T03:03:33.360Z,11.10
2019-05-26T03:04:33.351Z,11.40
2019-05-26T03:05:33.379Z,10.50
2019-05-26T03:06:33.333Z,10.70
2019-05-26T03:07:33.310Z,10.50
2019-05-26T03:08:33.315Z,10.90
2019-05-26T03:09:40.271Z,10.70
2019-05-26T03:10:33.283Z,11.30
2019-05-26T03:11:33.293Z,11.20
2019-05-26T03:12:33.261Z,11.60
2019-05-26T03:13:33.278Z,11.20
2019-05-26T03:14:33.250Z,11.30
2019-05-26T03:15:33.231Z,11.10
2019-05-26T03:16:33.254Z,11.50
2019-05-26T03:17:33.206Z,11.10
2019-05-26T03:18:33.205Z,11.30
2019-05-26T03:19:33.192Z,10.80
2019-05-26T03:20:33.175Z,10.30
2019-05-26T03:21:33.185Z,11.40
2019-05-26T03:22:33.159Z,10.50
2019-05-26T03:23:33.141Z,11.50
2019-05-26T03:24:33.133Z,11.20
2019-05-26T03:25:33.181Z,12.30
2019-05-26T03:26:33.172Z,11.20
2019-05-26T03:27:33.103Z,11.10
2019-05-26T03:28:33.088Z,11.70
2019-05-26T03:29:33.097Z,10.70
2019-05-26T03:30:33.067Z,11.70
2019-05-26T03:31:33.069Z,11.50
2019-05-26T03:32:33.098Z,11.10
2019-05-26T03:33:33.042Z,10.90
2019-05-26T03:34:33.131Z,11.00
2019-05-26T03:35:33.069Z,12.60
2019-05-26T03:36:33.006Z,11.80
2019-05-26T03:37:32.994Z,12.30
2019-05-26T03:38:32.990Z,12.30
2019-05-26T03:39:44.466Z,12.10
2019-05-26T03:40:34.024Z,11.80
2019-05-26T03:41:39.949Z,11.90
2019-05-26T03:42:32.938Z,11.40
2019-05-26T03:43:32.968Z,11.50
2019-05-26T03:44:32.914Z,10.90
2019-05-26T03:45:32.904Z,11.90
2019-05-26T03:46:32.897Z,11.20
2019-05-26T03:47:32.897Z,11.30
2019-05-26T03:48:32.872Z,10.50
2019-05-26T03:49:32.878Z,12.20
2019-05-26T03:50:32.861Z,10.60
2019-05-26T03:51:32.840Z,12.30
2019-05-26T03:52:32.821Z,12.00
2019-05-26T03:53:32.817Z,12.00
2019-05-26T03:54:32.882Z,11.40
2019-05-26T03:55:32.841Z,11.70
2019-05-26T03:56:32.789Z,10.80
2019-05-26T03:57:32.830Z,11.60
2019-05-26T03:58:32.767Z,11.60
2019-05-26T03:59:32.747Z,11.40
2019-05-26T04:00:32.740Z,8.50
2019-05-26T04:01:32.738Z,9.50
2019-05-26T04:02:32.798Z,8.70
2019-05-26T04:03:32.708Z,9.20
2019-05-26T04:04:32.700Z,8.30
2019-05-26T04:05:32.725Z,9.50
2019-05-26T04:06:32.670Z,9.00
2019-05-26T04:07:32.672Z,10.60
2019-05-26T04:08:32.701Z,10.00
2019-05-26T04:09:32.647Z,10.60
2019-05-26T04:10:32.634Z,9.60
2019-05-26T04:11:32.631Z,9.90
2019-05-26T04:12:32.605Z,9.30
2019-05-26T04:13:39.578Z,9.70
2019-05-26T04:14:32.583Z,9.40
2019-05-26T04:15:32.583Z,9.50
2019-05-26T04:16:32.614Z,9.20
2019-05-26T04:17:32.557Z,10.00
2019-05-26T04:18:32.559Z,9.70
2019-05-26T04:19:32.537Z,9.90
2019-05-26T04:20:32.522Z,9.30
2019-05-26T04:21:32.519Z,10.10
2019-05-26T04:22:32.521Z,9.80
2019-05-26T04:23:32.497Z,10.30
2019-05-26T04:24:32.523Z,9.90
2019-05-26T04:25:32.461Z,10.60
2019-05-26T04:26:32.450Z,9.60
2019-05-26T04:27:32.455Z,10.40
2019-05-26T04:28:32.434Z,9.50
2019-05-26T04:29:32.426Z,9.20
2019-05-26T04:30:32.487Z,8.80
2019-05-26T04:31:32.408Z,9.50
2019-05-26T04:32:32.431Z,9.00
2019-05-26T04:33:32.421Z,9.20
2019-05-26T04:34:32.366Z,8.90
2019-05-26T04:35:32.351Z,9.10
2019-05-26T04:36:32.347Z,8.80
2019-05-26T04:37:32.340Z,8.70
2019-05-26T04:38:32.493Z,8.60
2019-05-26T04:39:32.311Z,8.60
2019-05-26T04:40:32.303Z,9.20
2019-05-26T04:41:32.302Z,8.30
2019-05-26T04:42:32.281Z,8.60
2019-05-26T04:43:32.290Z,8.70
2019-05-26T04:44:32.317Z,8.60
2019-05-26T04:45:39.235Z,8.20
2019-05-26T04:46:32.232Z,8.30
2019-05-26T04:47:32.227Z,8.30
2019-05-26T04:48:32.222Z,8.20
2019-05-26T04:49:37.051Z,8.50
2019-05-26T04:50:33.233Z,8.80
2019-05-26T04:51:32.191Z,8.20
2019-05-26T04:52:32.187Z,8.90
2019-05-26T04:53:32.162Z,8.40
2019-05-26T04:54:32.148Z,8.20
2019-05-26T04:55:32.145Z,8.30
2019-05-26T04:56:32.148Z,8.30
2019-05-26T04:57:32.164Z,8.30
2019-05-26T04:58:32.114Z,8.30
2019-05-26T04:59:32.111Z,8.60
2019-05-26T05:00:32.137Z,11.20
2019-05-26T05:01:32.084Z,10.90
2019-05-26T05:02:32.071Z,11.00
2019-05-26T05:03:32.055Z,11.30
2019-05-26T05:04:32.046Z,11.60
2019-05-26T05:05:32.095Z,11.50
2019-05-26T05:06:32.026Z,11.30
2019-05-26T05:07:32.044Z,11.30
2019-05-26T05:08:32.002Z,11.00
2019-05-26T05:09:31.991Z,11.30
2019-05-26T05:10:41.747Z,12.20
2019-05-26T05:11:33.044Z,12.60
2019-05-26T05:12:31.953Z,12.30
2019-05-26T05:13:31.942Z,12.90
2019-05-26T05:14:31.930Z,13.00
2019-05-26T05:15:31.922Z,12.20
2019-05-26T05:16:31.956Z,12.60
2019-05-26T05:17:38.879Z,13.80
2019-05-26T05:18:31.886Z,11.70
2019-05-26T05:19:31.885Z,11.20
2019-05-26T05:20:31.867Z,11.90
2019-05-26T05:21:31.853Z,11.50
2019-05-26T05:22:31.866Z,11.50
2019-05-26T05:23:31.834Z,11.50
2019-05-26T05:24:31.869Z,11.30
2019-05-26T05:25:31.812Z,11.70
2019-05-26T05:26:31.823Z,10.70
2019-05-26T05:27:31.845Z,11.40
2019-05-26T05:28:31.796Z,11.20
2019-05-26T05:29:31.783Z,11.40
2019-05-26T05:30:31.762Z,11.30
2019-05-26T05:31:31.747Z,11.30
2019-05-26T05:32:32.936Z,12.90
2019-05-26T05:33:31.798Z,11.30
2019-05-26T05:34:31.713Z,11.90
2019-05-26T05:35:31.703Z,12.80
2019-05-26T05:36:31.693Z,13.20
2019-05-26T05:37:31.679Z,11.50
2019-05-26T05:38:31.671Z,12.20
2019-05-26T05:39:31.767Z,12.00
2019-05-26T05:40:31.653Z,12.10
2019-05-26T05:41:31.640Z,11.90
2019-05-26T05:42:31.633Z,12.50
2019-05-26T05:43:31.626Z,12.10
2019-05-26T05:44:31.604Z,11.80
2019-05-26T05:45:31.643Z,12.50
2019-05-26T05:46:31.585Z,12.70
2019-05-26T05:47:31.582Z,12.40
2019-05-26T05:48:31.559Z,12.30
2019-05-26T05:49:38.537Z,13.10
2019-05-26T05:50:31.544Z,12.80
2019-05-26T05:51:31.531Z,12.80
2019-05-26T05:52:31.520Z,13.70
2019-05-26T05:53:31.501Z,12.90
2019-05-26T05:54:31.529Z,12.50
2019-05-26T05:55:31.480Z,12.20
2019-05-26T05:56:31.525Z,13.20
2019-05-26T05:57:31.465Z,12.30
2019-05-26T05:58:31.449Z,12.50
2019-05-26T05:59:31.495Z,13.20
2019-05-26T06:00:31.453Z,13.00
2019-05-26T06:01:31.421Z,16.30
2019-05-26T06:02:31.407Z,16.50
2019-05-26T06:03:31.399Z,18.70
2019-05-26T06:04:31.442Z,17.10
2019-05-26T06:05:31.383Z,20.00
2019-05-26T06:06:31.396Z,19.00
2019-05-26T06:07:31.349Z,18.60
2019-05-26T06:08:31.346Z,17.40
2019-05-26T06:09:31.337Z,19.20
2019-05-26T06:10:31.335Z,18.50
2019-05-26T06:11:31.374Z,18.80
2019-05-26T06:12:31.310Z,18.70
2019-05-26T06:13:31.287Z,18.40
2019-05-26T06:14:31.357Z,19.00
2019-05-26T06:15:31.264Z,18.10
2019-05-26T06:16:31.299Z,18.10
2019-05-26T06:17:31.279Z,18.30
2019-05-26T06:18:31.229Z,18.10
2019-05-26T06:19:31.223Z,18.70
2019-05-26T06:20:31.209Z,18.60
2019-05-26T06:21:39.865Z,17.80
2019-05-26T06:22:31.230Z,18.80
2019-05-26T06:23:31.175Z,18.80
2019-05-26T06:24:31.168Z,19.90
2019-05-26T06:25:31.164Z,18.50
2019-05-26T06:26:31.168Z,19.00
2019-05-26T06:27:31.138Z,19.00
2019-05-26T06:28:31.136Z,18.80
2019-05-26T06:29:31.121Z,18.20
2019-05-26T06:30:31.103Z,18.50
2019-05-26T06:31:31.098Z,17.70
2019-05-26T06:32:31.086Z,18.30
2019-05-26T06:33:31.078Z,18.80
2019-05-26T06:34:31.113Z,17.30
2019-05-26T06:35:32.837Z,18.70
2019-05-26T06:36:31.041Z,17.80
2019-05-26T06:37:31.024Z,18.00
2019-05-26T06:38:31.082Z,18.80
2019-05-26T06:39:31.005Z,18.40
2019-05-26T06:40:31.008Z,19.80
2019-05-26T06:41:33.781Z,18.10
2019-05-26T06:42:31.013Z,19.00
2019-05-26T06:43:30.958Z,20.10
2019-05-26T06:44:30.953Z,18.50
2019-05-26T06:45:31.013Z,18.50
2019-05-26T06:46:30.935Z,18.70
2019-05-26T06:47:30.924Z,18.60
2019-05-26T06:48:30.905Z,18.90
2019-05-26T06:49:30.922Z,19.10
2019-05-26T06:50:30.939Z,20.80
2019-05-26T06:51:30.876Z,20.40
2019-05-26T06:52:30.868Z,20.60
2019-05-26T06:53:38.392Z,20.50
2019-05-26T06:54:30.844Z,19.80
2019-05-26T06:55:30.838Z,19.80
2019-05-26T06:56:30.825Z,20.80
2019-05-26T06:57:30.809Z,20.20
2019-05-26T06:58:30.804Z,20.30
2019-05-26T06:59:30.787Z,20.20
2019-05-26T07:00:30.814Z,19.40
2019-05-26T07:01:30.793Z,20.60
2019-05-26T07:02:30.757Z,20.60
2019-05-26T07:03:30.797Z,20.70
2019-05-26T07:04:30.735Z,21.10
2019-05-26T07:05:30.730Z,20.70
2019-05-26T07:06:30.717Z,19.90
2019-05-26T07:07:30.722Z,20.20
2019-05-26T07:08:30.716Z,21.30
2019-05-26T07:09:30.681Z,21.20
2019-05-26T07:10:30.674Z,21.70
2019-05-26T07:11:30.728Z,20.60
2019-05-26T07:12:30.651Z,21.50
2019-05-26T07:13:30.663Z,24.10
2019-05-26T07:14:30.677Z,40.00
2019-05-26T07:15:30.619Z,30.40
2019-05-26T07:16:37.946Z,21.10
2019-05-26T07:17:31.614Z,19.70
2019-05-26T07:18:30.600Z,21.60
2019-05-26T07:19:30.573Z,20.20
2019-05-26T07:20:30.608Z,20.40
2019-05-26T07:21:30.552Z,19.90
2019-05-26T07:22:30.550Z,19.80
2019-05-26T07:23:30.565Z,20.40
2019-05-26T07:24:30.520Z,19.90
2019-05-26T07:25:37.488Z,20.00
2019-05-26T07:26:30.499Z,20.90
2019-05-26T07:27:30.482Z,21.50
2019-05-26T07:28:30.475Z,21.10
2019-05-26T07:29:30.485Z,22.00
2019-05-26T07:30:30.457Z,20.40
2019-05-26T07:31:30.446Z,20.30
2019-05-26T07:32:30.473Z,18.80
2019-05-26T07:33:30.427Z,20.10
2019-05-26T07:34:30.430Z,19.20
2019-05-26T07:35:33.071Z,19.90
2019-05-26T07:36:30.412Z,20.30
2019-05-26T07:37:30.377Z,19.80
2019-05-26T07:38:30.371Z,21.80
2019-05-26T07:39:30.359Z,20.50
2019-05-26T07:40:30.386Z,21.10
2019-05-26T07:41:30.362Z,21.10
2019-05-26T07:42:30.328Z,20.70
2019-05-26T07:43:30.319Z,21.50
2019-05-26T07:44:30.299Z,21.80
2019-05-26T07:45:30.294Z,20.80
2019-05-26T07:46:30.295Z,21.40
2019-05-26T07:47:30.330Z,21.00
2019-05-26T07:48:30.262Z,20.90
2019-05-26T07:49:30.256Z,20.70
2019-05-26T07:50:30.239Z,14.40
2019-05-26T07:51:30.264Z,14.70
2019-05-26T07:52:30.213Z,14.20
2019-05-26T07:53:30.274Z,15.50
2019-05-26T07:54:30.198Z,14.40
2019-05-26T07:55:30.188Z,14.40
2019-05-26T07:56:30.177Z,13.80
2019-05-26T07:57:39.132Z,13.50
2019-05-26T07:58:30.155Z,14.40
2019-05-26T07:59:30.134Z,13.70
2019-05-26T08:00:30.126Z,13.80
2019-05-26T08:01:36.056Z,14.00
2019-05-26T08:02:31.119Z,14.80
2019-05-26T08:03:30.103Z,14.90
2019-05-26T08:04:30.175Z,14.00
2019-05-26T08:05:30.080Z,13.90
2019-05-26T08:06:30.060Z,14.60
2019-05-26T08:07:30.058Z,14.40
2019-05-26T08:08:30.056Z,14.50
2019-05-26T08:09:30.119Z,14.40
2019-05-26T08:10:30.021Z,15.00
2019-05-26T08:11:30.009Z,21.00
2019-05-26T08:12:30.823Z,21.80
2019-05-26T08:13:30.020Z,21.30
2019-05-26T08:14:29.975Z,19.30
2019-05-26T08:15:29.968Z,18.60
2019-05-26T08:16:29.960Z,19.70
2019-05-26T08:17:29.993Z,20.70
2019-05-26T08:18:29.929Z,18.30
2019-05-26T08:19:29.930Z,18.50
2019-05-26T08:20:29.909Z,18.40
2019-05-26T08:21:29.894Z,18.30
2019-05-26T08:22:29.890Z,15.60
2019-05-26T08:23:29.968Z,13.20
2019-05-26T08:24:29.887Z,14.30
2019-05-26T08:25:29.864Z,13.70
2019-05-26T08:26:29.848Z,13.40
2019-05-26T08:27:29.838Z,14.50
2019-05-26T08:28:29.823Z,14.70
2019-05-26T08:29:37.002Z,13.70
2019-05-26T08:30:29.804Z,14.20
2019-05-26T08:31:29.789Z,14.80
2019-05-26T08:32:29.783Z,13.70
2019-05-26T08:33:29.772Z,14.10
2019-05-26T08:34:29.764Z,14.80
2019-05-26T08:35:29.758Z,15.10
2019-05-26T08:36:29.769Z,15.20
2019-05-26T08:37:29.747Z,15.20
2019-05-26T08:38:29.722Z,15.10
2019-05-26T08:39:29.764Z,15.20
2019-05-26T08:40:29.729Z,15.40
2019-05-26T08:41:29.681Z,14.40
2019-05-26T08:42:43.799Z,14.90
2019-05-26T08:43:30.662Z,15.30
2019-05-26T08:44:29.700Z,15.40
2019-05-26T08:45:29.635Z,14.90
2019-05-26T08:46:29.674Z,14.80
2019-05-26T08:47:29.614Z,14.70
2019-05-26T08:48:29.603Z,14.40
2019-05-26T08:49:29.595Z,14.70
2019-05-26T08:50:29.587Z,15.20
2019-05-26T08:51:29.624Z,14.40
2019-05-26T08:52:29.581Z,15.20
2019-05-26T08:53:29.595Z,15.80
2019-05-26T08:54:29.549Z,14.70
2019-05-26T08:55:29.532Z,15.40
2019-05-26T08:56:29.561Z,14.60
2019-05-26T08:57:29.546Z,15.00
2019-05-26T08:58:29.644Z,14.70
2019-05-26T08:59:29.502Z,14.80
2019-05-26T09:00:29.474Z,15.20
2019-05-26T09:01:36.439Z,15.60
2019-05-26T09:02:29.509Z,15.00
2019-05-26T09:03:29.478Z,15.50
2019-05-26T09:04:29.435Z,16.20
2019-05-26T09:05:29.424Z,16.00
2019-05-26T09:06:29.417Z,15.40
2019-05-26T09:07:29.401Z,15.90
2019-05-26T09:08:29.470Z,15.80
2019-05-26T09:09:29.395Z,15.60
2019-05-26T09:10:29.369Z,15.60
2019-05-26T09:11:29.370Z,16.70
2019-05-26T09:12:29.347Z,16.30
2019-05-26T09:13:29.389Z,16.10
2019-05-26T09:14:29.326Z,17.10
2019-05-26T09:15:29.329Z,16.20
2019-05-26T09:16:29.370Z,16.50
2019-05-26T09:17:29.292Z,15.90
2019-05-26T09:18:29.277Z,15.60
2019-05-26T09:19:29.275Z,15.20
2019-05-26T09:20:29.297Z,15.40
2019-05-26T09:21:29.243Z,16.80
2019-05-26T09:22:29.259Z,15.50
2019-05-26T09:23:29.226Z,15.90
2019-05-26T09:24:29.221Z,16.10
2019-05-26T09:25:29.201Z,15.30
2019-05-26T09:26:29.201Z,14.70
2019-05-26T09:27:29.178Z,14.00
2019-05-26T09:28:29.219Z,15.20
2019-05-26T09:29:29.165Z,15.30
2019-05-26T09:30:29.171Z,15.10
2019-05-26T09:31:29.146Z,15.00
2019-05-26T09:32:29.142Z,14.10
2019-05-26T09:33:36.097Z,17.10
2019-05-26T09:34:29.106Z,15.90
2019-05-26T09:35:29.093Z,16.30
2019-05-26T09:36:29.089Z,16.20
2019-05-26T09:37:29.067Z,17.50
2019-05-26T09:38:29.059Z,16.60
2019-05-26T09:39:29.051Z,17.00
2019-05-26T09:40:29.107Z,17.60
2019-05-26T09:41:29.082Z,16.10
2019-05-26T09:42:29.026Z,16.30
2019-05-26T09:43:29.014Z,16.20
2019-05-26T09:44:29.003Z,16.80
2019-05-26T09:45:29.022Z,16.60
2019-05-26T09:46:28.984Z,16.10
2019-05-26T09:47:29.011Z,15.10
2019-05-26T09:48:28.984Z,15.70
2019-05-26T09:49:28.942Z,16.40
2019-05-26T09:50:28.929Z,15.60
2019-05-26T09:51:28.915Z,16.70
2019-05-26T09:52:28.905Z,17.00
2019-05-26T09:53:28.975Z,16.60
2019-05-26T09:54:28.883Z,16.90
2019-05-26T09:55:28.874Z,16.20
2019-05-26T09:56:28.866Z,16.80
2019-05-26T09:57:28.853Z,16.80
2019-05-26T09:58:28.878Z,16.80
2019-05-26T09:59:28.870Z,16.20
2019-05-26T10:00:28.819Z,16.70
2019-05-26T10:01:28.813Z,14.30
2019-05-26T10:02:28.804Z,12.60
2019-05-26T10:03:28.788Z,12.60
2019-05-26T10:04:28.824Z,12.40
2019-05-26T10:05:36.526Z,12.30
2019-05-26T10:06:28.755Z,12.80
2019-05-26T10:07:28.744Z,12.40
2019-05-26T10:08:28.734Z,14.00
2019-05-26T10:09:28.737Z,12.90
2019-05-26T10:10:28.736Z,12.90
2019-05-26T10:11:28.708Z,12.90
2019-05-26T10:12:28.732Z,12.00
2019-05-26T10:13:31.729Z,10.90
2019-05-26T10:14:28.672Z,11.30
2019-05-26T10:15:28.672Z,12.00
2019-05-26T10:16:28.692Z,11.70
2019-05-26T10:17:28.663Z,11.70
2019-05-26T10:18:28.621Z,11.40
2019-05-26T10:19:28.615Z,11.70
2019-05-26T10:20:28.620Z,11.60
2019-05-26T10:21:28.596Z,11.90
2019-05-26T10:22:28.613Z,12.80
2019-05-26T10:23:28.574Z,12.40
2019-05-26T10:24:28.557Z,12.10
2019-05-26T10:25:28.590Z,12.30
2019-05-26T10:26:28.536Z,12.90
2019-05-26T10:27:28.531Z,12.40
2019-05-26T10:28:28.541Z,11.80
2019-05-26T10:29:28.552Z,12.70
2019-05-26T10:30:28.491Z,13.60
2019-05-26T10:31:28.497Z,12.70
2019-05-26T10:32:28.476Z,12.30
2019-05-26T10:33:28.468Z,12.90
2019-05-26T10:34:28.448Z,12.80
2019-05-26T10:35:28.464Z,11.70
2019-05-26T10:36:28.507Z,12.20
2019-05-26T10:37:35.558Z,13.40
2019-05-26T10:38:28.416Z,12.30
2019-05-26T10:39:28.394Z,11.90
2019-05-26T10:40:28.386Z,12.50
2019-05-26T10:41:28.388Z,13.50
2019-05-26T10:42:28.412Z,12.50
2019-05-26T10:43:28.403Z,12.40
2019-05-26T10:44:28.341Z,13.10
2019-05-26T10:45:28.394Z,13.60
2019-05-26T10:46:28.326Z,12.20
2019-05-26T10:47:28.313Z,12.50
2019-05-26T10:48:28.311Z,13.80
2019-05-26T10:49:28.287Z,13.30
2019-05-26T10:50:28.320Z,12.20
2019-05-26T10:51:28.265Z,11.60
2019-05-26T10:52:28.307Z,14.20
2019-05-26T10:53:28.247Z,13.40
2019-05-26T10:54:28.232Z,12.40
2019-05-26T10:55:28.230Z,12.30
2019-05-26T10:56:28.226Z,13.90
2019-05-26T10:57:28.269Z,12.20
2019-05-26T10:58:28.207Z,11.90
2019-05-26T10:59:28.238Z,12.70
2019-05-26T11:00:28.165Z,12.80
2019-05-26T11:01:28.160Z,11.50
2019-05-26T11:02:28.153Z,12.10
2019-05-26T11:03:28.221Z,12.50
2019-05-26T11:04:28.126Z,14.50
2019-05-26T11:05:28.116Z,12.90
2019-05-26T11:06:28.109Z,11.30
2019-05-26T11:07:28.089Z,10.90
2019-05-26T11:08:28.102Z,11.10
2019-05-26T11:09:35.089Z,11.30
2019-05-26T11:10:28.062Z,11.80
2019-05-26T11:11:28.054Z,13.80
2019-05-26T11:12:28.038Z,12.00
2019-05-26T11:13:28.044Z,11.60
2019-05-26T11:14:28.060Z,12.60
2019-05-26T11:15:28.005Z,14.60
2019-05-26T11:16:28.001Z,13.00
2019-05-26T11:17:28.030Z,13.10
2019-05-26T11:18:27.976Z,12.50
2019-05-26T11:19:27.967Z,12.50
2019-05-26T11:20:27.986Z,13.30
2019-05-26T11:21:27.990Z,12.40
2019-05-26T11:22:27.933Z,11.70
2019-05-26T11:23:27.926Z,13.20
2019-05-26T11:24:27.909Z,13.00
2019-05-26T11:25:27.912Z,13.10
2019-05-26T11:26:27.910Z,14.00
2019-05-26T11:27:27.885Z,11.60
2019-05-26T11:28:27.863Z,11.60
2019-05-26T11:29:27.854Z,12.30
2019-05-26T11:30:27.872Z,13.20
2019-05-26T11:31:27.834Z,12.90
2019-05-26T11:32:27.894Z,12.10
2019-05-26T11:33:27.822Z,12.80
2019-05-26T11:34:27.806Z,12.70
2019-05-26T11:35:27.786Z,12.70
2019-05-26T11:36:27.801Z,11.90
2019-05-26T11:37:27.767Z,12.00
2019-05-26T11:38:27.792Z,12.00
2019-05-26T11:39:27.743Z,12.30
2019-05-26T11:40:27.737Z,12.60
2019-05-26T11:41:36.644Z,12.50
2019-05-26T11:42:27.712Z,12.70
2019-05-26T11:43:27.701Z,12.40
2019-05-26T11:44:27.693Z,12.40
2019-05-26T11:45:27.682Z,14.10
2019-05-26T11:46:27.685Z,12.60
2019-05-26T11:47:27.674Z,11.90
2019-05-26T11:48:27.648Z,13.10
2019-05-26T11:49:27.643Z,12.40
2019-05-26T11:50:27.630Z,12.50
2019-05-26T11:51:27.655Z,12.40
2019-05-26T11:52:27.623Z,12.50
2019-05-26T11:53:27.613Z,13.00
2019-05-26T11:54:27.638Z,12.60
2019-05-26T11:55:27.971Z,12.60
2019-05-26T11:56:27.560Z,13.20
2019-05-26T11:57:27.553Z,13.00
2019-05-26T11:58:27.586Z,12.00
2019-05-26T11:59:27.563Z,13.50
2019-05-26T12:00:27.549Z,13.60
2019-05-26T12:01:27.514Z,12.40
2019-05-26T12:02:27.499Z,12.90
2019-05-26T12:03:27.487Z,15.20
2019-05-26T12:04:27.550Z,12.90
2019-05-26T12:05:27.524Z,11.80
2019-05-26T12:06:27.449Z,12.20
2019-05-26T12:07:27.456Z,14.50
2019-05-26T12:08:27.439Z,12.90
2019-05-26T12:09:27.419Z,11.80
2019-05-26T12:10:27.429Z,15.40
2019-05-26T12:11:27.444Z,16.90
2019-05-26T12:12:27.409Z,18.20
2019-05-26T12:13:36.771Z,16.10
2019-05-26T12:14:34.860Z,16.50
2019-05-26T12:15:28.353Z,18.00
2019-05-26T12:16:28.921Z,18.30
2019-05-26T12:17:27.335Z,17.30
2019-05-26T12:18:27.323Z,16.70
2019-05-26T12:19:27.344Z,20.50
2019-05-26T12:20:27.380Z,16.50
2019-05-26T12:21:27.289Z,17.20
2019-05-26T12:22:27.285Z,19.70
2019-05-26T12:23:27.336Z,18.40
2019-05-26T12:24:27.257Z,15.90
2019-05-26T12:25:27.257Z,16.00
2019-05-26T12:26:27.257Z,18.60
2019-05-26T12:27:27.232Z,17.70
2019-05-26T12:28:27.299Z,18.20
2019-05-26T12:29:27.209Z,16.60
2019-05-26T12:30:27.197Z,17.80
2019-05-26T12:31:27.185Z,16.00
2019-05-26T12:32:27.181Z,17.00
2019-05-26T12:33:27.163Z,16.70
2019-05-26T12:34:27.198Z,17.70
2019-05-26T12:35:27.152Z,18.40
2019-05-26T12:36:27.170Z,19.00
2019-05-26T12:37:27.122Z,18.00
2019-05-26T12:38:27.119Z,15.10
2019-05-26T12:39:27.103Z,13.80
2019-05-26T12:40:27.112Z,13.70
2019-05-26T12:41:27.080Z,14.80
2019-05-26T12:42:27.085Z,14.10
2019-05-26T12:43:27.057Z,13.70
2019-05-26T12:44:27.044Z,14.10
2019-05-26T12:45:34.662Z,15.20
2019-05-26T12:46:27.020Z,14.70
2019-05-26T12:47:27.006Z,14.30
2019-05-26T12:48:27.010Z,19.30
2019-05-26T12:49:27.959Z,19.80
2019-05-26T12:50:26.987Z,18.20
2019-05-26T12:51:26.975Z,17.60
2019-05-26T12:52:26.955Z,17.40
2019-05-26T12:53:26.955Z,16.90
2019-05-26T12:54:26.985Z,16.50
2019-05-26T12:55:26.919Z,16.30
2019-05-26T12:56:26.916Z,17.80
2019-05-26T12:57:26.945Z,17.40
2019-05-26T12:58:26.944Z,16.30